sensor_id;sensor_type;location;lat;lon;timestamp;P1;durP1;ratioP1;P2;durP2;ratioP2
75760;SDS011;64373;46.136;8.830;2023-03-05T00:01:32;4.25;;;2.50;;
75760;SDS011;64373;46.136;8.830;2023-03-05T00:03:58;5.13;;;2.60;;
75760;SDS011;64373;46.136;8.830;2023-03-05T00:06:25;4.65;;;2.28;;
75760;SDS011;64373;46.136;8.830;2023-03-05T00:08:52;2.88;;;2.05;;
75760;SDS011;64373;46.136;8.830;2023-03-05T00:11:20;4.45;;;2.58;;
75760;SDS011;64373;46.136;8.830;2023-03-05T00:13:46;4.07;;;2.08;;
75760;SDS011;64373;46.136;8.830;2023-03-05T00:16:14;3.40;;;1.92;;
75760;SDS011;64373;46.136;8.830;2023-03-05T00:18:40;3.88;;;2.25;;
75760;SDS011;64373;46.136;8.830;2023-03-05T00:21:20;3.47;;;2.10;;
75760;SDS011;64373;46.136;8.830;2023-03-05T00:23:50;4.13;;;2.35;;
75760;SDS011;64373;46.136;8.830;2023-03-05T00:26:20;5.13;;;2.47;;
75760;SDS011;64373;46.136;8.830;2023-03-05T00:31:16;4.97;;;2.45;;
75760;SDS011;64373;46.136;8.830;2023-03-05T00:33:43;6.22;;;2.35;;
75760;SDS011;64373;46.136;8.830;2023-03-05T00:36:09;5.20;;;2.35;;
75760;SDS011;64373;46.136;8.830;2023-03-05T00:38:35;5.65;;;2.40;;
75760;SDS011;64373;46.136;8.830;2023-03-05T00:41:00;4.70;;;2.40;;
75760;SDS011;64373;46.136;8.830;2023-03-05T00:43:26;4.57;;;2.40;;
75760;SDS011;64373;46.136;8.830;2023-03-05T00:45:53;4.18;;;2.25;;
75760;SDS011;64373;46.136;8.830;2023-03-05T00:48:18;5.13;;;2.40;;
75760;SDS011;64373;46.136;8.830;2023-03-05T00:50:44;3.78;;;2.20;;
75760;SDS011;64373;46.136;8.830;2023-03-05T00:53:10;5.15;;;2.40;;
75760;SDS011;64373;46.136;8.830;2023-03-05T00:55:35;4.93;;;1.90;;
75760;SDS011;64373;46.136;8.830;2023-03-05T00:58:01;3.60;;;2.00;;
75760;SDS011;64373;46.136;8.830;2023-03-05T01:00:27;4.38;;;1.88;;
75760;SDS011;64373;46.136;8.830;2023-03-05T01:02:52;3.53;;;2.05;;
75760;SDS011;64373;46.136;8.830;2023-03-05T01:05:18;3.15;;;1.90;;
75760;SDS011;64373;46.136;8.830;2023-03-05T01:07:44;4.22;;;2.00;;
75760;SDS011;64373;46.136;8.830;2023-03-05T01:10:10;3.17;;;1.80;;
75760;SDS011;64373;46.136;8.830;2023-03-05T01:12:36;4.47;;;1.98;;
75760;SDS011;64373;46.136;8.830;2023-03-05T01:15:02;4.60;;;2.00;;
75760;SDS011;64373;46.136;8.830;2023-03-05T01:17:28;4.25;;;2.47;;
75760;SDS011;64373;46.136;8.830;2023-03-05T01:19:53;4.55;;;1.70;;
75760;SDS011;64373;46.136;8.830;2023-03-05T01:22:19;4.57;;;1.85;;
75760;SDS011;64373;46.136;8.830;2023-03-05T01:24:44;3.17;;;1.90;;
75760;SDS011;64373;46.136;8.830;2023-03-05T01:27:10;5.22;;;1.98;;
75760;SDS011;64373;46.136;8.830;2023-03-05T01:29:36;3.05;;;2.13;;
75760;SDS011;64373;46.136;8.830;2023-03-05T01:32:01;3.60;;;1.80;;
75760;SDS011;64373;46.136;8.830;2023-03-05T01:34:27;5.28;;;1.88;;
75760;SDS011;64373;46.136;8.830;2023-03-05T01:36:52;3.97;;;1.90;;
75760;SDS011;64373;46.136;8.830;2023-03-05T01:39:18;5.22;;;1.73;;
75760;SDS011;64373;46.136;8.830;2023-03-05T01:41:43;3.33;;;1.80;;
75760;SDS011;64373;46.136;8.830;2023-03-05T01:47:01;5.38;;;1.83;;
75760;SDS011;64373;46.136;8.830;2023-03-05T01:49:28;9.23;;;3.00;;
75760;SDS011;64373;46.136;8.830;2023-03-05T01:51:57;2.83;;;1.80;;
75760;SDS011;64373;46.136;8.830;2023-03-05T01:54:25;2.85;;;1.42;;
75760;SDS011;64373;46.136;8.830;2023-03-05T01:56:58;3.20;;;1.85;;
75760;SDS011;64373;46.136;8.830;2023-03-05T01:59:26;3.88;;;1.70;;
75760;SDS011;64373;46.136;8.830;2023-03-05T02:01:53;3.70;;;1.85;;
75760;SDS011;64373;46.136;8.830;2023-03-05T02:04:20;2.88;;;1.83;;
75760;SDS011;64373;46.136;8.830;2023-03-05T02:06:49;3.08;;;1.80;;
75760;SDS011;64373;46.136;8.830;2023-03-05T02:09:15;2.67;;;1.67;;
75760;SDS011;64373;46.136;8.830;2023-03-05T02:11:41;3.03;;;1.73;;
75760;SDS011;64373;46.136;8.830;2023-03-05T02:14:07;4.22;;;1.77;;
75760;SDS011;64373;46.136;8.830;2023-03-05T02:16:33;2.90;;;1.83;;
75760;SDS011;64373;46.136;8.830;2023-03-05T02:19:02;5.35;;;1.80;;
75760;SDS011;64373;46.136;8.830;2023-03-05T02:21:42;3.13;;;1.77;;
75760;SDS011;64373;46.136;8.830;2023-03-05T02:24:13;4.03;;;1.73;;
75760;SDS011;64373;46.136;8.830;2023-03-05T02:26:41;3.40;;;1.67;;
75760;SDS011;64373;46.136;8.830;2023-03-05T02:29:09;3.50;;;1.73;;
75760;SDS011;64373;46.136;8.830;2023-03-05T02:31:37;3.20;;;1.67;;
75760;SDS011;64373;46.136;8.830;2023-03-05T02:34:03;2.97;;;1.65;;
75760;SDS011;64373;46.136;8.830;2023-03-05T02:36:29;4.70;;;1.98;;
75760;SDS011;64373;46.136;8.830;2023-03-05T02:38:54;3.67;;;1.63;;
75760;SDS011;64373;46.136;8.830;2023-03-05T02:41:21;4.55;;;1.85;;
75760;SDS011;64373;46.136;8.830;2023-03-05T02:43:47;4.55;;;2.10;;
75760;SDS011;64373;46.136;8.830;2023-03-05T02:46:13;3.10;;;1.70;;
75760;SDS011;64373;46.136;8.830;2023-03-05T02:48:38;3.60;;;1.75;;
75760;SDS011;64373;46.136;8.830;2023-03-05T02:51:04;2.63;;;1.70;;
75760;SDS011;64373;46.136;8.830;2023-03-05T02:53:31;2.83;;;1.80;;
75760;SDS011;64373;46.136;8.830;2023-03-05T02:55:57;2.85;;;1.85;;
75760;SDS011;64373;46.136;8.830;2023-03-05T02:58:22;4.50;;;1.80;;
75760;SDS011;64373;46.136;8.830;2023-03-05T03:00:48;2.17;;;1.48;;
75760;SDS011;64373;46.136;8.830;2023-03-05T03:03:13;2.58;;;1.50;;
75760;SDS011;64373;46.136;8.830;2023-03-05T03:05:39;4.55;;;1.90;;
75760;SDS011;64373;46.136;8.830;2023-03-05T03:08:05;3.42;;;1.55;;
75760;SDS011;64373;46.136;8.830;2023-03-05T03:10:31;2.20;;;1.50;;
75760;SDS011;64373;46.136;8.830;2023-03-05T03:12:57;3.33;;;1.85;;
75760;SDS011;64373;46.136;8.830;2023-03-05T03:15:22;2.25;;;1.60;;
75760;SDS011;64373;46.136;8.830;2023-03-05T03:17:48;2.97;;;1.42;;
75760;SDS011;64373;46.136;8.830;2023-03-05T03:20:14;3.80;;;1.60;;
75760;SDS011;64373;46.136;8.830;2023-03-05T03:22:42;2.88;;;1.27;;
75760;SDS011;64373;46.136;8.830;2023-03-05T03:25:09;2.28;;;1.40;;
75760;SDS011;64373;46.136;8.830;2023-03-05T03:27:35;3.20;;;1.63;;
75760;SDS011;64373;46.136;8.830;2023-03-05T03:30:02;3.65;;;1.55;;
75760;SDS011;64373;46.136;8.830;2023-03-05T03:32:29;2.80;;;1.23;;
75760;SDS011;64373;46.136;8.830;2023-03-05T03:34:55;4.50;;;1.40;;
75760;SDS011;64373;46.136;8.830;2023-03-05T03:37:21;2.30;;;1.52;;
75760;SDS011;64373;46.136;8.830;2023-03-05T03:39:47;2.50;;;1.30;;
75760;SDS011;64373;46.136;8.830;2023-03-05T03:42:15;2.15;;;1.20;;
75760;SDS011;64373;46.136;8.830;2023-03-05T03:44:42;2.95;;;1.50;;
75760;SDS011;64373;46.136;8.830;2023-03-05T03:47:07;2.95;;;1.42;;
75760;SDS011;64373;46.136;8.830;2023-03-05T03:49:33;3.10;;;1.23;;
75760;SDS011;64373;46.136;8.830;2023-03-05T03:51:58;2.28;;;1.45;;
75760;SDS011;64373;46.136;8.830;2023-03-05T03:54:24;3.72;;;1.45;;
75760;SDS011;64373;46.136;8.830;2023-03-05T03:56:50;2.92;;;1.20;;
75760;SDS011;64373;46.136;8.830;2023-03-05T03:59:15;2.47;;;1.27;;
75760;SDS011;64373;46.136;8.830;2023-03-05T04:01:41;3.17;;;1.55;;
75760;SDS011;64373;46.136;8.830;2023-03-05T04:04:06;2.75;;;1.60;;
75760;SDS011;64373;46.136;8.830;2023-03-05T04:06:33;3.17;;;1.20;;
75760;SDS011;64373;46.136;8.830;2023-03-05T04:08:59;2.50;;;1.40;;
75760;SDS011;64373;46.136;8.830;2023-03-05T04:11:24;3.90;;;1.40;;
75760;SDS011;64373;46.136;8.830;2023-03-05T04:13:50;3.25;;;1.15;;
75760;SDS011;64373;46.136;8.830;2023-03-05T04:16:16;2.40;;;1.20;;
75760;SDS011;64373;46.136;8.830;2023-03-05T04:18:41;2.60;;;1.30;;
75760;SDS011;64373;46.136;8.830;2023-03-05T04:21:07;3.25;;;1.30;;
75760;SDS011;64373;46.136;8.830;2023-03-05T04:23:33;1.67;;;1.05;;
75760;SDS011;64373;46.136;8.830;2023-03-05T04:25:59;2.22;;;1.15;;
75760;SDS011;64373;46.136;8.830;2023-03-05T04:28:25;2.47;;;1.23;;
75760;SDS011;64373;46.136;8.830;2023-03-05T04:30:50;2.05;;;1.20;;
75760;SDS011;64373;46.136;8.830;2023-03-05T04:33:16;2.30;;;1.08;;
75760;SDS011;64373;46.136;8.830;2023-03-05T04:35:42;2.15;;;1.10;;
75760;SDS011;64373;46.136;8.830;2023-03-05T04:38:08;1.42;;;1.00;;
75760;SDS011;64373;46.136;8.830;2023-03-05T04:40:34;2.53;;;1.00;;
75760;SDS011;64373;46.136;8.830;2023-03-05T04:42:59;3.47;;;1.10;;
75760;SDS011;64373;46.136;8.830;2023-03-05T04:45:25;1.88;;;1.00;;
75760;SDS011;64373;46.136;8.830;2023-03-05T04:47:50;1.63;;;1.02;;
75760;SDS011;64373;46.136;8.830;2023-03-05T04:50:16;1.67;;;1.00;;
75760;SDS011;64373;46.136;8.830;2023-03-05T04:52:42;2.10;;;1.13;;
75760;SDS011;64373;46.136;8.830;2023-03-05T04:55:08;2.08;;;1.13;;
75760;SDS011;64373;46.136;8.830;2023-03-05T04:57:35;1.67;;;0.98;;
75760;SDS011;64373;46.136;8.830;2023-03-05T05:00:06;2.75;;;1.20;;
75760;SDS011;64373;46.136;8.830;2023-03-05T05:02:39;3.00;;;1.20;;
75760;SDS011;64373;46.136;8.830;2023-03-05T05:05:06;2.03;;;1.20;;
75760;SDS011;64373;46.136;8.830;2023-03-05T05:07:32;2.15;;;0.95;;
75760;SDS011;64373;46.136;8.830;2023-03-05T05:09:58;2.90;;;1.00;;
75760;SDS011;64373;46.136;8.830;2023-03-05T05:12:23;1.40;;;0.90;;
75760;SDS011;64373;46.136;8.830;2023-03-05T05:14:49;1.55;;;0.85;;
75760;SDS011;64373;46.136;8.830;2023-03-05T05:17:14;2.08;;;1.13;;
75760;SDS011;64373;46.136;8.830;2023-03-05T05:19:40;1.65;;;0.80;;
75760;SDS011;64373;46.136;8.830;2023-03-05T05:22:05;1.40;;;0.80;;
75760;SDS011;64373;46.136;8.830;2023-03-05T05:24:31;1.85;;;0.93;;
75760;SDS011;64373;46.136;8.830;2023-03-05T05:26:56;1.65;;;1.00;;
75760;SDS011;64373;46.136;8.830;2023-03-05T05:29:22;1.95;;;1.10;;
75760;SDS011;64373;46.136;8.830;2023-03-05T05:31:48;2.40;;;1.00;;
75760;SDS011;64373;46.136;8.830;2023-03-05T05:34:14;1.73;;;0.80;;
75760;SDS011;64373;46.136;8.830;2023-03-05T05:36:40;3.38;;;1.20;;
75760;SDS011;64373;46.136;8.830;2023-03-05T05:39:05;1.42;;;0.70;;
75760;SDS011;64373;46.136;8.830;2023-03-05T05:41:31;1.33;;;0.77;;
75760;SDS011;64373;46.136;8.830;2023-03-05T05:43:56;1.38;;;0.90;;
75760;SDS011;64373;46.136;8.830;2023-03-05T05:46:22;1.67;;;1.02;;
75760;SDS011;64373;46.136;8.830;2023-03-05T05:48:49;1.00;;;0.60;;
75760;SDS011;64373;46.136;8.830;2023-03-05T05:51:16;1.45;;;0.95;;
75760;SDS011;64373;46.136;8.830;2023-03-05T05:53:43;1.20;;;0.80;;
75760;SDS011;64373;46.136;8.830;2023-03-05T05:56:10;2.20;;;0.93;;
75760;SDS011;64373;46.136;8.830;2023-03-05T05:58:36;1.52;;;1.00;;
75760;SDS011;64373;46.136;8.830;2023-03-05T06:01:10;1.63;;;0.90;;
75760;SDS011;64373;46.136;8.830;2023-03-05T06:03:40;3.40;;;1.08;;
75760;SDS011;64373;46.136;8.830;2023-03-05T06:06:12;1.40;;;0.80;;
75760;SDS011;64373;46.136;8.830;2023-03-05T06:08:40;1.40;;;1.00;;
75760;SDS011;64373;46.136;8.830;2023-03-05T06:11:06;1.65;;;0.90;;
75760;SDS011;64373;46.136;8.830;2023-03-05T06:13:32;2.53;;;0.98;;
75760;SDS011;64373;46.136;8.830;2023-03-05T06:15:59;1.95;;;1.05;;
75760;SDS011;64373;46.136;8.830;2023-03-05T06:18:26;3.38;;;1.20;;
75760;SDS011;64373;46.136;8.830;2023-03-05T06:23:39;3.05;;;0.82;;
75760;SDS011;64373;46.136;8.830;2023-03-05T06:26:06;1.48;;;0.93;;
75760;SDS011;64373;46.136;8.830;2023-03-05T06:28:32;1.90;;;0.93;;
75760;SDS011;64373;46.136;8.830;2023-03-05T06:31:03;2.30;;;1.08;;
75760;SDS011;64373;46.136;8.830;2023-03-05T06:33:39;1.85;;;0.95;;
75760;SDS011;64373;46.136;8.830;2023-03-05T06:36:07;1.83;;;0.80;;
75760;SDS011;64373;46.136;8.830;2023-03-05T06:38:35;1.13;;;0.75;;
75760;SDS011;64373;46.136;8.830;2023-03-05T06:41:01;2.40;;;0.88;;
75760;SDS011;64373;46.136;8.830;2023-03-05T06:43:30;2.80;;;1.13;;
75760;SDS011;64373;46.136;8.830;2023-03-05T06:48:32;2.00;;;1.00;;
75760;SDS011;64373;46.136;8.830;2023-03-05T06:50:58;2.35;;;0.90;;
75760;SDS011;64373;46.136;8.830;2023-03-05T06:53:25;2.65;;;1.00;;
75760;SDS011;64373;46.136;8.830;2023-03-05T06:55:51;2.00;;;1.05;;
75760;SDS011;64373;46.136;8.830;2023-03-05T06:58:18;1.85;;;1.20;;
75760;SDS011;64373;46.136;8.830;2023-03-05T07:00:43;2.33;;;1.33;;
75760;SDS011;64373;46.136;8.830;2023-03-05T07:03:09;1.77;;;0.93;;
75760;SDS011;64373;46.136;8.830;2023-03-05T07:05:39;3.35;;;1.40;;
75760;SDS011;64373;46.136;8.830;2023-03-05T07:08:05;2.53;;;1.27;;
75760;SDS011;64373;46.136;8.830;2023-03-05T07:10:31;2.03;;;1.10;;
75760;SDS011;64373;46.136;8.830;2023-03-05T07:12:57;3.20;;;1.02;;
75760;SDS011;64373;46.136;8.830;2023-03-05T07:15:23;1.98;;;0.90;;
75760;SDS011;64373;46.136;8.830;2023-03-05T07:17:48;2.55;;;1.17;;
75760;SDS011;64373;46.136;8.830;2023-03-05T07:20:14;2.08;;;1.20;;
75760;SDS011;64373;46.136;8.830;2023-03-05T07:22:40;1.45;;;1.08;;
75760;SDS011;64373;46.136;8.830;2023-03-05T07:25:05;1.45;;;0.93;;
75760;SDS011;64373;46.136;8.830;2023-03-05T07:27:37;1.27;;;0.70;;
75760;SDS011;64373;46.136;8.830;2023-03-05T07:30:03;2.65;;;1.00;;
75760;SDS011;64373;46.136;8.830;2023-03-05T07:32:29;2.63;;;1.02;;
75760;SDS011;64373;46.136;8.830;2023-03-05T07:34:54;2.13;;;1.05;;
75760;SDS011;64373;46.136;8.830;2023-03-05T07:37:20;2.40;;;1.00;;
75760;SDS011;64373;46.136;8.830;2023-03-05T07:39:45;2.85;;;1.20;;
75760;SDS011;64373;46.136;8.830;2023-03-05T07:42:11;2.67;;;1.10;;
75760;SDS011;64373;46.136;8.830;2023-03-05T07:44:37;3.85;;;1.40;;
75760;SDS011;64373;46.136;8.830;2023-03-05T07:47:03;2.53;;;0.90;;
75760;SDS011;64373;46.136;8.830;2023-03-05T07:49:29;1.45;;;0.70;;
75760;SDS011;64373;46.136;8.830;2023-03-05T07:51:55;1.58;;;1.00;;
75760;SDS011;64373;46.136;8.830;2023-03-05T07:54:20;1.85;;;0.85;;
75760;SDS011;64373;46.136;8.830;2023-03-05T07:56:46;2.30;;;1.00;;
75760;SDS011;64373;46.136;8.830;2023-03-05T07:59:12;2.40;;;1.20;;
75760;SDS011;64373;46.136;8.830;2023-03-05T08:01:38;2.78;;;1.10;;
75760;SDS011;64373;46.136;8.830;2023-03-05T08:04:04;1.58;;;0.95;;
75760;SDS011;64373;46.136;8.830;2023-03-05T08:06:31;2.15;;;1.10;;
75760;SDS011;64373;46.136;8.830;2023-03-05T08:08:57;2.08;;;1.23;;
75760;SDS011;64373;46.136;8.830;2023-03-05T08:11:24;1.35;;;0.80;;
75760;SDS011;64373;46.136;8.830;2023-03-05T08:13:50;1.92;;;0.90;;
75760;SDS011;64373;46.136;8.830;2023-03-05T08:16:17;1.80;;;1.00;;
75760;SDS011;64373;46.136;8.830;2023-03-05T08:18:43;2.17;;;0.80;;
75760;SDS011;64373;46.136;8.830;2023-03-05T08:21:19;1.55;;;0.90;;
75760;SDS011;64373;46.136;8.830;2023-03-05T08:23:47;1.33;;;0.90;;
75760;SDS011;64373;46.136;8.830;2023-03-05T08:26:17;2.63;;;1.00;;
75760;SDS011;64373;46.136;8.830;2023-03-05T08:28:44;1.35;;;0.85;;
75760;SDS011;64373;46.136;8.830;2023-03-05T08:31:10;1.55;;;0.70;;
75760;SDS011;64373;46.136;8.830;2023-03-05T08:33:36;1.48;;;0.82;;
75760;SDS011;64373;46.136;8.830;2023-03-05T08:36:01;1.52;;;0.80;;
75760;SDS011;64373;46.136;8.830;2023-03-05T08:38:27;2.65;;;0.90;;
75760;SDS011;64373;46.136;8.830;2023-03-05T08:40:53;1.10;;;0.70;;
75760;SDS011;64373;46.136;8.830;2023-03-05T08:43:18;1.85;;;0.85;;
75760;SDS011;64373;46.136;8.830;2023-03-05T08:45:44;1.20;;;0.80;;
75760;SDS011;64373;46.136;8.830;2023-03-05T08:48:11;1.10;;;0.70;;
75760;SDS011;64373;46.136;8.830;2023-03-05T08:50:37;1.90;;;0.95;;
75760;SDS011;64373;46.136;8.830;2023-03-05T08:53:03;1.95;;;0.90;;
75760;SDS011;64373;46.136;8.830;2023-03-05T08:55:28;2.00;;;1.00;;
75760;SDS011;64373;46.136;8.830;2023-03-05T08:57:54;1.38;;;0.75;;
75760;SDS011;64373;46.136;8.830;2023-03-05T09:00:19;1.00;;;0.70;;
75760;SDS011;64373;46.136;8.830;2023-03-05T09:02:45;1.08;;;0.70;;
75760;SDS011;64373;46.136;8.830;2023-03-05T09:05:10;0.95;;;0.75;;
75760;SDS011;64373;46.136;8.830;2023-03-05T09:07:36;1.20;;;0.70;;
75760;SDS011;64373;46.136;8.830;2023-03-05T09:10:02;2.60;;;0.70;;
75760;SDS011;64373;46.136;8.830;2023-03-05T09:12:29;2.10;;;0.63;;
75760;SDS011;64373;46.136;8.830;2023-03-05T09:14:55;2.90;;;0.80;;
75760;SDS011;64373;46.136;8.830;2023-03-05T09:17:21;1.60;;;0.80;;
75760;SDS011;64373;46.136;8.830;2023-03-05T09:19:47;1.38;;;0.70;;
75760;SDS011;64373;46.136;8.830;2023-03-05T09:22:12;1.48;;;0.85;;
75760;SDS011;64373;46.136;8.830;2023-03-05T09:24:37;2.28;;;0.95;;
75760;SDS011;64373;46.136;8.830;2023-03-05T09:27:03;3.90;;;0.95;;
75760;SDS011;64373;46.136;8.830;2023-03-05T09:29:29;1.52;;;0.90;;
75760;SDS011;64373;46.136;8.830;2023-03-05T09:31:55;1.98;;;0.90;;
75760;SDS011;64373;46.136;8.830;2023-03-05T09:34:21;2.03;;;0.80;;
75760;SDS011;64373;46.136;8.830;2023-03-05T09:36:48;1.55;;;0.90;;
75760;SDS011;64373;46.136;8.830;2023-03-05T09:39:13;1.58;;;0.90;;
75760;SDS011;64373;46.136;8.830;2023-03-05T09:44:27;2.13;;;0.85;;
75760;SDS011;64373;46.136;8.830;2023-03-05T09:50:00;1.45;;;0.73;;
75760;SDS011;64373;46.136;8.830;2023-03-05T09:52:50;1.67;;;0.82;;
75760;SDS011;64373;46.136;8.830;2023-03-05T09:55:30;2.35;;;0.75;;
75760;SDS011;64373;46.136;8.830;2023-03-05T09:58:01;0.90;;;0.65;;
75760;SDS011;64373;46.136;8.830;2023-03-05T10:00:49;2.10;;;0.70;;
75760;SDS011;64373;46.136;8.830;2023-03-05T10:06:02;1.40;;;0.90;;
75760;SDS011;64373;46.136;8.830;2023-03-05T10:14:14;2.25;;;1.23;;
75760;SDS011;64373;46.136;8.830;2023-03-05T10:24:47;1.77;;;0.98;;
75760;SDS011;64373;46.136;8.830;2023-03-05T10:27:34;2.80;;;1.02;;
75760;SDS011;64373;46.136;8.830;2023-03-05T10:38:26;2.00;;;0.90;;
75760;SDS011;64373;46.136;8.830;2023-03-05T10:40:56;2.58;;;1.00;;
75760;SDS011;64373;46.136;8.830;2023-03-05T10:45:59;1.30;;;0.90;;
75760;SDS011;64373;46.136;8.830;2023-03-05T10:51:33;1.70;;;1.02;;
75760;SDS011;64373;46.136;8.830;2023-03-05T10:54:11;3.00;;;0.77;;
75760;SDS011;64373;46.136;8.830;2023-03-05T10:56:49;3.63;;;0.93;;
75760;SDS011;64373;46.136;8.830;2023-03-05T10:59:15;1.60;;;0.80;;
75760;SDS011;64373;46.136;8.830;2023-03-05T11:01:40;2.05;;;1.02;;
75760;SDS011;64373;46.136;8.830;2023-03-05T11:04:06;1.67;;;0.80;;
75760;SDS011;64373;46.136;8.830;2023-03-05T11:06:38;1.77;;;0.93;;
75760;SDS011;64373;46.136;8.830;2023-03-05T11:15:00;1.25;;;0.80;;
75760;SDS011;64373;46.136;8.830;2023-03-05T11:17:31;1.70;;;0.90;;
75760;SDS011;64373;46.136;8.830;2023-03-05T11:28:37;1.25;;;1.02;;
75760;SDS011;64373;46.136;8.830;2023-03-05T11:31:19;1.55;;;1.08;;
75760;SDS011;64373;46.136;8.830;2023-03-05T11:34:03;1.35;;;1.02;;
75760;SDS011;64373;46.136;8.830;2023-03-05T11:36:31;2.53;;;1.00;;
75760;SDS011;64373;46.136;8.830;2023-03-05T11:41:36;1.90;;;0.93;;
75760;SDS011;64373;46.136;8.830;2023-03-05T11:44:04;2.08;;;1.20;;
75760;SDS011;64373;46.136;8.830;2023-03-05T11:46:40;1.70;;;1.00;;
75760;SDS011;64373;46.136;8.830;2023-03-05T11:49:09;4.22;;;1.20;;
75760;SDS011;64373;46.136;8.830;2023-03-05T11:52:11;2.75;;;1.15;;
75760;SDS011;64373;46.136;8.830;2023-03-05T11:54:58;1.88;;;1.17;;
75760;SDS011;64373;46.136;8.830;2023-03-05T11:57:23;2.30;;;1.30;;
75760;SDS011;64373;46.136;8.830;2023-03-05T11:59:51;2.67;;;1.20;;
75760;SDS011;64373;46.136;8.830;2023-03-05T12:02:24;1.80;;;1.20;;
75760;SDS011;64373;46.136;8.830;2023-03-05T12:04:51;3.20;;;0.85;;
75760;SDS011;64373;46.136;8.830;2023-03-05T12:07:18;1.55;;;0.80;;
75760;SDS011;64373;46.136;8.830;2023-03-05T12:09:50;3.90;;;1.48;;
75760;SDS011;64373;46.136;8.830;2023-03-05T12:18:13;1.88;;;1.20;;
75760;SDS011;64373;46.136;8.830;2023-03-05T12:23:14;3.17;;;1.33;;
75760;SDS011;64373;46.136;8.830;2023-03-05T12:31:00;4.90;;;1.45;;
75760;SDS011;64373;46.136;8.830;2023-03-05T12:33:36;3.03;;;1.20;;
75760;SDS011;64373;46.136;8.830;2023-03-05T12:38:55;3.70;;;1.50;;
75760;SDS011;64373;46.136;8.830;2023-03-05T12:46:32;2.70;;;1.73;;
75760;SDS011;64373;46.136;8.830;2023-03-05T12:51:42;2.40;;;1.35;;
75760;SDS011;64373;46.136;8.830;2023-03-05T12:57:01;1.60;;;1.10;;
75760;SDS011;64373;46.136;8.830;2023-03-05T12:59:31;2.22;;;1.42;;
75760;SDS011;64373;46.136;8.830;2023-03-05T13:02:35;2.35;;;1.20;;
75760;SDS011;64373;46.136;8.830;2023-03-05T13:05:31;1.85;;;1.33;;
75760;SDS011;64373;46.136;8.830;2023-03-05T13:10:40;2.58;;;1.40;;
75760;SDS011;64373;46.136;8.830;2023-03-05T13:13:10;2.03;;;1.30;;
75760;SDS011;64373;46.136;8.830;2023-03-05T13:15:38;1.75;;;1.30;;
75760;SDS011;64373;46.136;8.830;2023-03-05T13:18:04;2.58;;;1.30;;
75760;SDS011;64373;46.136;8.830;2023-03-05T13:20:36;3.53;;;1.48;;
75760;SDS011;64373;46.136;8.830;2023-03-05T13:23:23;3.00;;;1.40;;
75760;SDS011;64373;46.136;8.830;2023-03-05T13:31:28;5.13;;;1.38;;
75760;SDS011;64373;46.136;8.830;2023-03-05T13:33:58;2.67;;;1.60;;
75760;SDS011;64373;46.136;8.830;2023-03-05T13:36:32;6.95;;;2.05;;
75760;SDS011;64373;46.136;8.830;2023-03-05T13:38:57;2.35;;;1.50;;
75760;SDS011;64373;46.136;8.830;2023-03-05T13:41:27;2.53;;;1.70;;
75760;SDS011;64373;46.136;8.830;2023-03-05T13:43:58;4.05;;;1.55;;
75760;SDS011;64373;46.136;8.830;2023-03-05T13:51:54;4.72;;;2.00;;
75760;SDS011;64373;46.136;8.830;2023-03-05T13:54:21;3.47;;;2.00;;
75760;SDS011;64373;46.136;8.830;2023-03-05T13:56:49;4.55;;;2.10;;
75760;SDS011;64373;46.136;8.830;2023-03-05T13:59:16;3.80;;;2.08;;
75760;SDS011;64373;46.136;8.830;2023-03-05T14:01:43;4.30;;;2.30;;
75760;SDS011;64373;46.136;8.830;2023-03-05T14:06:45;5.07;;;2.72;;
75760;SDS011;64373;46.136;8.830;2023-03-05T14:14:21;6.07;;;2.65;;
75760;SDS011;64373;46.136;8.830;2023-03-05T14:16:47;5.43;;;2.90;;
75760;SDS011;64373;46.136;8.830;2023-03-05T14:21:59;5.90;;;3.00;;
75760;SDS011;64373;46.136;8.830;2023-03-05T14:24:25;6.60;;;2.83;;
75760;SDS011;64373;46.136;8.830;2023-03-05T14:26:56;4.13;;;2.60;;
75760;SDS011;64373;46.136;8.830;2023-03-05T14:29:37;5.75;;;3.05;;
75760;SDS011;64373;46.136;8.830;2023-03-05T14:32:16;6.85;;;3.03;;
75760;SDS011;64373;46.136;8.830;2023-03-05T14:34:50;4.93;;;2.60;;
75760;SDS011;64373;46.136;8.830;2023-03-05T14:39:55;6.53;;;3.33;;
75760;SDS011;64373;46.136;8.830;2023-03-05T14:42:33;5.78;;;2.80;;
75760;SDS011;64373;46.136;8.830;2023-03-05T14:45:21;5.00;;;2.97;;
75760;SDS011;64373;46.136;8.830;2023-03-05T14:47:50;6.70;;;3.22;;
75760;SDS011;64373;46.136;8.830;2023-03-05T14:50:21;4.78;;;2.55;;
75760;SDS011;64373;46.136;8.830;2023-03-05T14:52:58;5.07;;;3.03;;
75760;SDS011;64373;46.136;8.830;2023-03-05T14:55:27;5.72;;;3.08;;
75760;SDS011;64373;46.136;8.830;2023-03-05T14:58:00;4.75;;;2.78;;
75760;SDS011;64373;46.136;8.830;2023-03-05T15:00:28;5.28;;;3.05;;
75760;SDS011;64373;46.136;8.830;2023-03-05T15:02:54;5.53;;;3.03;;
75760;SDS011;64373;46.136;8.830;2023-03-05T15:05:22;5.70;;;3.17;;
75760;SDS011;64373;46.136;8.830;2023-03-05T15:07:48;5.07;;;2.97;;
75760;SDS011;64373;46.136;8.830;2023-03-05T15:10:16;5.53;;;3.05;;
75760;SDS011;64373;46.136;8.830;2023-03-05T15:12:43;7.28;;;3.25;;
75760;SDS011;64373;46.136;8.830;2023-03-05T15:15:17;8.55;;;3.30;;
75760;SDS011;64373;46.136;8.830;2023-03-05T15:17:46;6.75;;;3.08;;
75760;SDS011;64373;46.136;8.830;2023-03-05T15:20:17;5.85;;;3.03;;
75760;SDS011;64373;46.136;8.830;2023-03-05T15:22:55;6.95;;;3.30;;
75760;SDS011;64373;46.136;8.830;2023-03-05T15:25:22;5.80;;;2.97;;
75760;SDS011;64373;46.136;8.830;2023-03-05T15:27:50;4.85;;;3.15;;
75760;SDS011;64373;46.136;8.830;2023-03-05T15:30:20;5.03;;;3.08;;
75760;SDS011;64373;46.136;8.830;2023-03-05T15:32:48;6.70;;;3.50;;
75760;SDS011;64373;46.136;8.830;2023-03-05T15:35:16;6.25;;;3.40;;
75760;SDS011;64373;46.136;8.830;2023-03-05T15:40:43;6.25;;;3.33;;
75760;SDS011;64373;46.136;8.830;2023-03-05T15:43:10;5.18;;;3.13;;
75760;SDS011;64373;46.136;8.830;2023-03-05T15:45:35;9.40;;;3.35;;
75760;SDS011;64373;46.136;8.830;2023-03-05T15:48:02;7.65;;;3.95;;
75760;SDS011;64373;46.136;8.830;2023-03-05T15:50:27;6.53;;;3.40;;
75760;SDS011;64373;46.136;8.830;2023-03-05T15:52:53;6.82;;;3.58;;
75760;SDS011;64373;46.136;8.830;2023-03-05T15:55:19;7.82;;;3.60;;
75760;SDS011;64373;46.136;8.830;2023-03-05T15:57:46;7.35;;;3.58;;
75760;SDS011;64373;46.136;8.830;2023-03-05T16:00:14;6.82;;;3.35;;
75760;SDS011;64373;46.136;8.830;2023-03-05T16:02:40;8.40;;;3.63;;
75760;SDS011;64373;46.136;8.830;2023-03-05T16:05:06;7.78;;;4.00;;
75760;SDS011;64373;46.136;8.830;2023-03-05T16:07:33;6.18;;;3.75;;
75760;SDS011;64373;46.136;8.830;2023-03-05T16:10:01;7.25;;;3.38;;
75760;SDS011;64373;46.136;8.830;2023-03-05T16:12:30;6.93;;;3.80;;
75760;SDS011;64373;46.136;8.830;2023-03-05T16:15:01;6.82;;;4.22;;
75760;SDS011;64373;46.136;8.830;2023-03-05T16:17:27;8.20;;;4.45;;
75760;SDS011;64373;46.136;8.830;2023-03-05T16:19:52;7.88;;;3.80;;
75760;SDS011;64373;46.136;8.830;2023-03-05T16:22:19;8.82;;;4.38;;
75760;SDS011;64373;46.136;8.830;2023-03-05T16:24:45;6.97;;;4.03;;
75760;SDS011;64373;46.136;8.830;2023-03-05T16:27:10;8.25;;;4.43;;
75760;SDS011;64373;46.136;8.830;2023-03-05T16:29:36;10.18;;;4.63;;
75760;SDS011;64373;46.136;8.830;2023-03-05T16:32:02;11.23;;;5.53;;
75760;SDS011;64373;46.136;8.830;2023-03-05T16:34:28;11.05;;;4.88;;
75760;SDS011;64373;46.136;8.830;2023-03-05T16:36:55;10.05;;;5.28;;
75760;SDS011;64373;46.136;8.830;2023-03-05T16:39:20;13.60;;;6.00;;
75760;SDS011;64373;46.136;8.830;2023-03-05T16:41:46;12.75;;;6.53;;
75760;SDS011;64373;46.136;8.830;2023-03-05T16:44:13;13.27;;;5.88;;
75760;SDS011;64373;46.136;8.830;2023-03-05T16:46:39;11.35;;;5.72;;
75760;SDS011;64373;46.136;8.830;2023-03-05T16:49:06;10.30;;;5.25;;
75760;SDS011;64373;46.136;8.830;2023-03-05T16:51:32;11.77;;;5.45;;
75760;SDS011;64373;46.136;8.830;2023-03-05T16:53:58;13.02;;;6.28;;